Time;durP1;ratioP1;P1;durP2;ratioP2;P2;SDS_P1;SDS_P2;PMS_P1;PMS_P2;Temp;Humidity;BMP_temperature;BMP_pressure;BME280_temperature;BME280_humidity;BME280_pressure;Samples;Min_cycle;Max_cycle;Signal;HPM_P1;HPM_P2
2023/07/11 00:01:30;;;;;;;10.50;7.40;;;22.60;14.20;;;;;;5026931;28;20478;-64
2023/07/11 00:03:56;;;;;;;9.83;7.17;;;22.60;14.30;;;;;;5021925;28;20486;-65
2023/07/11 00:06:23;;;;;;;11.20;7.20;;;22.50;14.90;;;;;;5020871;28;20838;-65
2023/07/11 00:08:51;;;;;;;11.77;7.70;;;22.40;15.00;;;;;;5026234;28;20466;-65
2023/07/11 00:11:19;;;;;;;8.80;7.20;;;22.40;15.10;;;;;;5022828;28;20463;-65
2023/07/11 00:13:46;;;;;;;9.97;6.97;;;22.40;15.00;;;;;;5021967;28;20510;-64
2023/07/11 00:16:15;;;;;;;11.87;7.57;;;22.40;14.80;;;;;;5025654;28;20487;-64
2023/07/11 00:18:42;;;;;;;9.57;7.00;;;22.40;14.70;;;;;;5028056;28;21246;-65
2023/07/11 00:21:09;;;;;;;10.43;7.30;;;22.40;14.90;;;;;;5024959;28;20471;-64
2023/07/11 00:23:36;;;;;;;10.73;8.20;;;22.40;14.80;;;;;;5026338;28;20526;-64
2023/07/11 00:26:04;;;;;;;10.90;8.13;;;22.40;14.80;;;;;;5024646;28;20451;-64
2023/07/11 00:28:31;;;;;;;10.13;7.13;;;22.40;15.30;;;;;;5025323;28;20469;-65
2023/07/11 00:30:58;;;;;;;11.57;7.70;;;22.40;15.50;;;;;;5024277;28;20862;-64
2023/07/11 00:33:24;;;;;;;8.77;7.27;;;22.40;15.60;;;;;;5027142;28;20991;-64
2023/07/11 00:35:53;;;;;;;13.03;7.30;;;22.40;15.50;;;;;;5022790;28;20483;-65
2023/07/11 00:38:20;;;;;;;9.97;7.83;;;22.30;15.50;;;;;;5025582;28;20463;-64
2023/07/11 00:40:50;;;;;;;11.63;7.33;;;22.40;15.40;;;;;;5024546;28;20455;-65
2023/07/11 00:43:20;;;;;;;10.40;8.07;;;22.40;15.30;;;;;;5025800;28;20494;-64
2023/07/11 00:46:04;;;;;;;12.87;7.60;;;22.40;15.50;;;;;;5022070;28;20466;-64
2023/07/11 00:48:34;;;;;;;10.27;7.37;;;22.30;15.70;;;;;;5022135;28;20474;-65
2023/07/11 00:51:01;;;;;;;14.13;8.57;;;22.40;15.50;;;;;;5025059;28;20520;-65
2023/07/11 00:53:30;;;;;;;10.67;8.00;;;22.30;16.00;;;;;;5022713;28;20486;-65
2023/07/11 00:56:00;;;;;;;10.70;7.80;;;22.30;15.70;;;;;;5026451;28;20859;-65
2023/07/11 00:58:30;;;;;;;12.60;7.13;;;22.30;15.50;;;;;;5023726;28;20478;-66
2023/07/11 01:00:57;;;;;;;11.00;7.80;;;22.20;15.90;;;;;;5026231;28;20474;-64
2023/07/11 01:03:24;;;;;;;10.77;8.40;;;22.20;15.90;;;;;;5021892;28;20505;-64
2023/07/11 01:05:56;;;;;;;11.93;8.00;;;22.20;16.00;;;;;;5018021;28;20484;-64
2023/07/11 01:08:22;;;;;;;11.03;7.20;;;22.20;16.00;;;;;;5022190;28;20491;-64
2023/07/11 01:10:49;;;;;;;10.70;8.20;;;22.30;16.00;;;;;;5023655;28;20470;-64
2023/07/11 01:13:16;;;;;;;11.90;8.70;;;22.20;16.00;;;;;;5021949;28;20953;-64
2023/07/11 01:15:44;;;;;;;13.50;8.27;;;22.20;15.80;;;;;;5024971;28;20486;-64
2023/07/11 01:18:11;;;;;;;12.70;9.03;;;22.30;16.00;;;;;;5019937;28;20477;-64
2023/07/11 01:20:38;;;;;;;11.70;9.40;;;22.20;16.20;;;;;;5027779;28;20481;-64
2023/07/11 01:23:06;;;;;;;12.30;8.20;;;22.20;16.30;;;;;;5027957;28;20462;-64
2023/07/11 01:25:34;;;;;;;15.43;9.37;;;22.20;16.40;;;;;;5026790;28;20462;-64
2023/07/11 01:28:01;;;;;;;10.37;8.40;;;22.10;16.40;;;;;;5027493;28;20467;-64
2023/07/11 01:30:28;;;;;;;16.10;8.50;;;22.10;16.40;;;;;;5026112;28;20463;-64
2023/07/11 01:32:54;;;;;;;10.97;7.70;;;22.10;16.60;;;;;;5028375;28;20874;-64
2023/07/11 01:35:21;;;;;;;10.87;8.67;;;22.00;16.60;;;;;;5023340;28;20482;-64
2023/07/11 01:37:48;;;;;;;10.73;8.97;;;22.00;17.10;;;;;;5028334;28;20474;-64
2023/07/11 01:40:16;;;;;;;13.50;8.67;;;21.90;17.40;;;;;;5026025;28;21046;-65
2023/07/11 01:42:44;;;;;;;11.27;8.17;;;21.90;17.50;;;;;;5028275;28;20505;-64
2023/07/11 01:45:11;;;;;;;10.57;8.40;;;21.80;18.00;;;;;;5028386;28;20517;-64
2023/07/11 01:47:39;;;;;;;16.10;9.80;;;21.70;18.40;;;;;;5030070;28;20474;-64
2023/07/11 01:50:06;;;;;;;12.13;9.30;;;21.70;18.60;;;;;;5026844;28;20465;-64
2023/07/11 01:52:33;;;;;;;13.90;9.50;;;21.60;18.70;;;;;;5016308;28;20458;-64
2023/07/11 01:55:00;;;;;;;10.43;8.37;;;21.60;19.00;;;;;;5024284;28;20504;-64
2023/07/11 01:57:28;;;;;;;14.37;9.80;;;21.60;19.10;;;;;;5024888;28;20478;-64
2023/07/11 01:59:55;;;;;;;12.53;9.70;;;21.50;19.40;;;;;;5029038;28;20466;-64
2023/07/11 02:02:22;;;;;;;12.60;9.80;;;21.50;19.60;;;;;;5025341;28;20467;-64
2023/07/11 02:04:48;;;;;;;12.93;9.80;;;21.40;19.80;;;;;;5028408;28;20482;-64
2023/07/11 02:07:15;;;;;;;12.83;10.33;;;21.40;20.00;;;;;;5028867;28;20458;-64
2023/07/11 02:09:42;;;;;;;14.63;11.03;;;21.40;20.10;;;;;;5027462;28;20589;-64
2023/07/11 02:12:10;;;;;;;13.20;9.90;;;21.40;20.50;;;;;;5027834;28;20470;-64
2023/07/11 02:14:40;;;;;;;12.87;9.50;;;21.40;20.40;;;;;;5022295;28;20487;-64
2023/07/11 02:17:08;;;;;;;15.70;11.50;;;21.40;20.40;;;;;;5022974;28;21090;-64
2023/07/11 02:19:35;;;;;;;13.63;10.30;;;21.40;20.60;;;;;;5028372;28;20494;-64
2023/07/11 02:22:02;;;;;;;13.53;10.20;;;21.40;20.50;;;;;;5026562;28;20467;-64
2023/07/11 02:24:29;;;;;;;14.47;11.03;;;21.40;20.30;;;;;;5029446;28;20479;-64
2023/07/11 02:26:55;;;;;;;15.43;10.53;;;21.40;20.30;;;;;;5020975;28;20470;-64
2023/07/11 02:29:22;;;;;;;14.30;9.27;;;21.40;20.30;;;;;;5028174;28;20482;-64
2023/07/11 02:31:50;;;;;;;12.60;9.67;;;21.30;20.50;;;;;;5027984;28;20556;-64
2023/07/11 02:34:17;;;;;;;14.30;9.70;;;21.30;20.60;;;;;;5024919;28;20946;-64
2023/07/11 02:36:44;;;;;;;12.93;10.00;;;21.20;20.50;;;;;;5028460;28;20486;-64
2023/07/11 02:39:11;;;;;;;13.03;9.90;;;21.20;20.70;;;;;;5024180;28;20466;-63
2023/07/11 02:41:38;;;;;;;13.70;10.27;;;21.20;21.00;;;;;;5029211;28;20466;-64
2023/07/11 02:44:05;;;;;;;12.50;10.50;;;21.10;21.20;;;;;;5023773;28;20916;-64
2023/07/11 02:46:32;;;;;;;12.97;11.57;;;21.10;21.90;;;;;;5025726;28;20458;-64
2023/07/11 02:49:00;;;;;;;14.33;10.97;;;21.00;22.10;;;;;;5023763;28;20459;-64
2023/07/11 02:51:27;;;;;;;19.50;11.13;;;21.00;22.10;;;;;;5028316;28;20485;-64
2023/07/11 02:53:53;;;;;;;13.83;10.00;;;21.00;22.00;;;;;;5016360;28;20486;-64
2023/07/11 02:56:20;;;;;;;12.07;10.13;;;21.00;22.20;;;;;;5028112;28;20471;-63
2023/07/11 02:58:48;;;;;;;12.60;11.27;;;20.90;22.50;;;;;;5026819;28;20470;-63
2023/07/11 03:01:15;;;;;;;12.13;10.13;;;20.80;22.70;;;;;;5027478;28;20520;-64
2023/07/11 03:03:42;;;;;;;13.10;11.20;;;20.70;23.40;;;;;;5026301;28;20483;-64
2023/07/11 03:06:10;;;;;;;16.03;11.60;;;20.70;23.90;;;;;;5027252;28;20459;-64
2023/07/11 03:08:37;;;;;;;14.00;10.60;;;20.60;24.60;;;;;;5025168;28;20467;-64
2023/07/11 03:11:03;;;;;;;14.83;10.73;;;20.60;24.90;;;;;;5025313;28;20463;-64
2023/07/11 03:13:30;;;;;;;11.93;10.57;;;20.50;24.80;;;;;;5026703;28;20478;-64
2023/07/11 03:16:02;;;;;;;15.00;11.27;;;20.50;25.00;;;;;;5026122;28;20490;-64
2023/07/11 03:18:28;;;;;;;11.80;10.17;;;20.50;25.30;;;;;;5024971;28;20464;-64
2023/07/11 03:20:58;;;;;;;14.57;10.37;;;20.60;24.70;;;;;;5017551;28;20459;-64
2023/07/11 03:23:27;;;;;;;15.20;10.53;;;20.60;25.00;;;;;;5025544;28;20517;-64
2023/07/11 03:25:54;;;;;;;14.20;11.83;;;20.60;24.80;;;;;;5020138;28;20460;-64
2023/07/11 03:28:21;;;;;;;14.00;11.30;;;20.60;25.10;;;;;;5025424;28;20467;-64
2023/07/11 03:30:48;;;;;;;12.63;10.90;;;20.60;24.80;;;;;;5026546;28;20486;-64
2023/07/11 03:33:15;;;;;;;12.40;10.43;;;20.60;24.40;;;;;;5015575;28;21021;-64
2023/07/11 03:35:41;;;;;;;13.27;10.50;;;20.70;24.40;;;;;;5022874;28;20459;-64
2023/07/11 03:38:08;;;;;;;14.43;11.00;;;20.60;24.90;;;;;;5018625;28;20463;-67
2023/07/11 03:40:36;;;;;;;13.23;9.87;;;20.60;25.20;;;;;;5020144;28;20478;-67
2023/07/11 03:43:03;;;;;;;13.67;11.03;;;20.60;24.60;;;;;;5019096;28;20463;-68
2023/07/11 03:45:30;;;;;;;12.33;10.47;;;20.70;24.20;;;;;;5017549;28;20463;-67
2023/07/11 03:47:57;;;;;;;13.50;10.10;;;20.70;24.60;;;;;;5018830;28;21139;-67
2023/07/11 03:50:23;;;;;;;14.13;11.53;;;20.70;24.90;;;;;;5019846;28;20462;-67
2023/07/11 03:52:50;;;;;;;17.00;12.30;;;20.60;25.80;;;;;;5022249;28;20821;-64
2023/07/11 03:55:17;;;;;;;20.80;11.40;;;20.60;25.90;;;;;;5025760;28;20461;-64
2023/07/11 03:57:45;;;;;;;15.00;10.90;;;20.50;25.50;;;;;;5018311;28;20488;-63
2023/07/11 04:00:12;;;;;;;17.87;11.37;;;20.50;25.20;;;;;;5021362;28;22723;-65
2023/07/11 04:02:39;;;;;;;15.03;10.33;;;20.50;25.20;;;;;;5015981;28;20466;-65
2023/07/11 04:05:06;;;;;;;17.97;12.10;;;20.50;25.60;;;;;;5019654;28;20874;-65
2023/07/11 04:07:33;;;;;;;16.73;10.60;;;20.60;25.30;;;;;;5013597;28;20463;-65
2023/07/11 04:10:00;;;;;;;13.73;10.53;;;20.70;25.40;;;;;;5019104;28;20924;-65
2023/07/11 04:12:26;;;;;;;15.63;11.60;;;20.80;24.60;;;;;;5022876;28;20467;-65
2023/07/11 04:14:55;;;;;;;14.73;11.30;;;20.80;24.90;;;;;;5023106;28;20482;-64
2023/07/11 04:17:21;;;;;;;19.13;12.07;;;20.90;24.90;;;;;;5021133;28;20832;-64
2023/07/11 04:19:49;;;;;;;14.17;11.93;;;20.90;24.70;;;;;;5020430;28;20459;-64
2023/07/11 04:22:16;;;;;;;15.53;12.53;;;21.00;24.90;;;;;;5024562;28;20459;-65
2023/07/11 04:24:43;;;;;;;14.87;11.67;;;21.00;25.20;;;;;;5024733;28;20487;-65
2023/07/11 04:27:10;;;;;;;15.17;11.40;;;21.00;25.00;;;;;;5021390;28;21030;-65
2023/07/11 04:29:36;;;;;;;14.80;12.00;;;21.00;25.00;;;;;;5019447;28;20459;-65
2023/07/11 04:32:06;;;;;;;15.53;11.90;;;21.00;25.20;;;;;;5021048;28;20526;-65
2023/07/11 04:34:33;;;;;;;16.00;11.10;;;21.10;25.30;;;;;;5021299;28;20486;-65
2023/07/11 04:36:59;;;;;;;16.73;12.20;;;21.30;25.30;;;;;;5022733;28;20475;-65
2023/07/11 04:39:26;;;;;;;14.60;12.00;;;21.80;24.50;;;;;;5021527;28;20466;-65
2023/07/11 04:41:53;;;;;;;15.07;11.27;;;22.40;22.70;;;;;;5025794;28;20455;-65
2023/07/11 04:44:20;;;;;;;14.27;11.57;;;22.90;21.00;;;;;;5019704;28;21030;-65
2023/07/11 04:46:46;;;;;;;13.90;12.07;;;23.20;19.80;;;;;;5020794;28;20455;-65
2023/07/11 04:49:14;;;;;;;18.33;10.70;;;23.50;19.00;;;;;;5021970;28;20815;-65
2023/07/11 04:51:41;;;;;;;15.83;11.57;;;23.90;17.90;;;;;;5021499;28;20733;-65
2023/07/11 04:54:08;;;;;;;17.23;11.70;;;23.90;17.00;;;;;;5028437;28;20478;-65
2023/07/11 04:56:38;;;;;;;15.67;11.47;;;23.70;17.40;;;;;;5028854;28;20486;-67
2023/07/11 04:59:05;;;;;;;15.10;11.40;;;23.50;18.00;;;;;;5021741;28;20458;-66
2023/07/11 05:01:32;;;;;;;13.30;10.07;;;23.70;18.20;;;;;;5027745;28;20471;-64
2023/07/11 05:03:59;;;;;;;13.67;10.13;;;24.30;17.20;;;;;;5028507;28;20490;-65
2023/07/11 05:06:27;;;;;;;13.50;10.03;;;25.00;15.50;;;;;;5024876;28;20485;-64
2023/07/11 05:08:54;;;;;;;11.50;10.07;;;25.70;13.10;;;;;;5021898;28;20455;-65
2023/07/11 05:11:22;;;;;;;13.30;10.40;;;26.10;12.80;;;;;;5029666;28;20458;-65
2023/07/11 05:13:52;;;;;;;12.87;8.27;;;26.90;10.50;;;;;;5025974;28;20490;-64
2023/07/11 05:16:20;;;;;;;11.63;9.30;;;27.70;8.90;;;;;;5027830;28;20548;-64
2023/07/11 05:18:49;;;;;;;11.97;9.67;;;28.30;7.50;;;;;;5027580;28;20474;-65
2023/07/11 05:21:18;;;;;;;12.67;9.67;;;28.20;7.00;;;;;;5024904;28;20471;-65
2023/07/11 05:23:46;;;;;;;14.00;8.97;;;28.10;7.30;;;;;;5024506;28;20479;-65
2023/07/11 05:26:13;;;;;;;14.77;9.30;;;27.80;7.50;;;;;;5025813;28;20485;-65
2023/07/11 05:28:40;;;;;;;12.80;9.10;;;27.40;8.20;;;;;;5026924;28;20475;-65
2023/07/11 05:31:08;;;;;;;15.80;8.33;;;27.40;8.60;;;;;;5024535;28;20959;-65
2023/07/11 05:33:35;;;;;;;11.77;8.70;;;28.70;6.50;;;;;;5019818;28;21144;-65
2023/07/11 05:36:32;;;;;;;10.20;8.00;;;30.40;3.30;;;;;;5020137;28;20823;-66
2023/07/11 05:39:02;;;;;;;10.53;7.70;;;31.80;1.00;;;;;;5022360;28;20458;-66
2023/07/11 05:41:29;;;;;;;14.87;8.60;;;32.50;1.00;;;;;;5022351;28;20824;-66
2023/07/11 05:43:56;;;;;;;11.97;7.67;;;33.30;1.00;;;;;;5025007;28;20483;-66
2023/07/11 05:46:23;;;;;;;11.13;7.37;;;34.10;1.00;;;;;;5020876;28;20466;-66
2023/07/11 05:48:50;;;;;;;9.97;7.17;;;34.80;1.00;;;;;;5019648;28;20464;-67
2023/07/11 05:51:17;;;;;;;11.13;7.30;;;35.90;1.00;;;;;;5022764;28;20459;-66
2023/07/11 05:53:45;;;;;;;10.13;7.40;;;37.00;1.00;;;;;;5020619;28;21071;-66
2023/07/11 05:56:13;;;;;;;12.13;6.70;;;38.00;1.00;;;;;;5026459;28;20475;-66
2023/07/11 05:58:41;;;;;;;8.67;6.37;;;38.80;1.00;;;;;;5020978;28;20466;-66
2023/07/11 06:01:08;;;;;;;9.10;6.17;;;39.60;1.00;;;;;;5023501;28;20467;-66
2023/07/11 06:03:35;;;;;;;10.57;7.10;;;40.50;1.00;;;;;;5025641;28;20479;-66
2023/07/11 06:06:02;;;;;;;10.37;7.47;;;41.40;1.00;;;;;;5028911;28;20916;-66
2023/07/11 06:08:29;;;;;;;12.47;7.60;;;42.20;1.00;;;;;;5020291;28;20466;-66
2023/07/11 06:10:57;;;;;;;8.03;7.07;;;42.70;1.00;;;;;;5028477;28;20476;-66
2023/07/11 06:13:26;;;;;;;10.10;7.20;;;42.90;1.00;;;;;;5024035;28;20876;-66
2023/07/11 06:15:58;;;;;;;10.00;7.43;;;43.30;1.00;;;;;;5023269;28;20814;-66
2023/07/11 06:18:25;;;;;;;14.83;8.37;;;43.70;1.00;;;;;;5025913;28;21062;-66
2023/07/11 06:20:52;;;;;;;10.20;7.97;;;44.00;1.00;;;;;;5024568;28;20464;-66
2023/07/11 06:23:19;;;;;;;10.60;8.30;;;44.40;1.00;;;;;;5027389;28;20479;-66
2023/07/11 06:25:47;;;;;;;10.43;7.90;;;45.00;1.00;;;;;;5027537;28;20462;-67
2023/07/11 06:28:14;;;;;;;10.40;7.47;;;45.60;1.00;;;;;;5022246;28;20459;-66
2023/07/11 06:30:43;;;;;;;10.43;6.70;;;46.10;1.00;;;;;;5027375;28;20470;-67
2023/07/11 06:33:10;;;;;;;8.07;6.80;;;46.60;1.00;;;;;;5027347;28;20483;-67
2023/07/11 06:35:38;;;;;;;11.50;6.87;;;46.90;1.00;;;;;;5025613;28;20920;-67
2023/07/11 06:38:04;;;;;;;8.47;6.93;;;47.10;1.00;;;;;;5024950;28;20480;-67
2023/07/11 06:40:31;;;;;;;8.10;7.03;;;47.20;1.00;;;;;;5028224;28;20971;-67
2023/07/11 06:42:58;;;;;;;9.60;6.27;;;47.90;1.00;;;;;;5024444;28;20464;-67
2023/07/11 06:45:25;;;;;;;10.17;6.83;;;48.60;1.00;;;;;;5027869;28;20467;-67
2023/07/11 06:47:53;;;;;;;8.90;6.37;;;49.00;1.00;;;;;;5021926;28;20459;-67
2023/07/11 06:50:19;;;;;;;10.80;7.10;;;49.60;1.00;;;;;;5024820;28;20958;-67
2023/07/11 06:52:47;;;;;;;7.90;6.70;;;50.00;1.00;;;;;;5022995;28;20463;-67
2023/07/11 06:55:13;;;;;;;7.60;6.40;;;50.10;1.00;;;;;;5023627;28;20822;-67
2023/07/11 06:57:40;;;;;;;7.73;6.60;;;50.50;1.00;;;;;;5022313;28;20490;-67
2023/07/11 07:00:09;;;;;;;10.20;6.63;;;51.00;1.00;;;;;;5023171;28;20500;-67
2023/07/11 07:02:36;;;;;;;8.90;7.03;;;51.10;1.00;;;;;;5020454;28;20598;-67
2023/07/11 07:05:04;;;;;;;10.70;7.47;;;51.60;1.00;;;;;;5024390;28;21052;-67
2023/07/11 07:07:31;;;;;;;7.83;5.47;;;52.20;1.00;;;;;;5022463;28;20469;-67
2023/07/11 07:09:59;;;;;;;9.97;5.97;;;52.40;1.00;;;;;;5021109;28;20982;-67
2023/07/11 07:12:26;;;;;;;9.90;6.60;;;52.80;1.00;;;;;;5021910;28;20494;-67
2023/07/11 07:14:53;;;;;;;7.10;6.03;;;53.10;1.00;;;;;;5023448;28;20486;-67
2023/07/11 07:17:20;;;;;;;10.17;5.40;;;53.10;1.00;;;;;;5020524;28;20486;-67
2023/07/11 07:19:46;;;;;;;9.27;6.77;;;52.80;1.00;;;;;;5021496;28;20458;-67
2023/07/11 07:22:15;;;;;;;8.63;5.83;;;52.90;1.00;;;;;;5025198;28;20486;-67
2023/07/11 07:24:42;;;;;;;7.67;5.93;;;52.90;1.00;;;;;;5019960;28;20511;-67
2023/07/11 07:27:11;;;;;;;8.60;6.80;;;52.80;1.00;;;;;;5020381;28;20452;-67
2023/07/11 07:29:37;;;;;;;9.87;7.23;;;52.70;1.00;;;;;;5026419;28;20545;-67
2023/07/11 07:32:05;;;;;;;6.83;5.90;;;52.70;1.00;;;;;;5020139;28;20490;-67
2023/07/11 07:34:31;;;;;;;10.57;6.67;;;52.80;1.00;;;;;;5021814;28;20486;-67
2023/07/11 07:36:58;;;;;;;8.70;5.30;;;52.70;1.00;;;;;;5021359;28;20471;-67
2023/07/11 07:39:26;;;;;;;8.33;6.30;;;52.80;1.00;;;;;;5026749;28;20982;-67
2023/07/11 07:41:53;;;;;;;10.30;6.60;;;53.00;1.00;;;;;;5021984;28;20463;-67
2023/07/11 07:44:21;;;;;;;7.20;6.33;;;53.00;1.00;;;;;;5022111;28;20689;-68
2023/07/11 07:46:47;;;;;;;9.40;5.80;;;53.20;1.00;;;;;;5024682;28;20469;-67
2023/07/11 07:49:14;;;;;;;7.30;5.80;;;53.70;1.00;;;;;;5023602;28;20475;-67
2023/07/11 07:51:41;;;;;;;8.90;6.00;;;53.90;1.00;;;;;;5020177;28;20475;-67
2023/07/11 07:54:07;;;;;;;7.50;6.07;;;54.20;1.00;;;;;;5021976;28;20471;-67
2023/07/11 07:56:35;;;;;;;7.00;5.97;;;54.00;1.00;;;;;;5019590;28;20466;-67
2023/07/11 07:59:02;;;;;;;7.67;5.80;;;54.00;1.00;;;;;;5023219;28;20529;-67
2023/07/11 08:01:30;;;;;;;8.67;5.60;;;54.20;1.00;;;;;;5016889;28;20482;-67
2023/07/11 08:03:57;;;;;;;9.97;7.23;;;54.40;1.00;;;;;;5022609;28;20479;-67
2023/07/11 08:06:24;;;;;;;7.73;6.70;;;54.30;1.00;;;;;;5022262;28;20463;-67
2023/07/11 08:08:51;;;;;;;8.00;6.07;;;54.40;1.00;;;;;;5022381;28;20462;-67
2023/07/11 08:11:20;;;;;;;10.30;5.87;;;54.60;1.00;;;;;;5022740;28;20890;-67
2023/07/11 08:13:49;;;;;;;8.90;6.70;;;54.60;1.00;;;;;;5022432;28;20489;-67
2023/07/11 08:16:16;;;;;;;7.50;6.37;;;54.70;1.00;;;;;;5024145;28;20467;-67
2023/07/11 08:18:43;;;;;;;9.57;6.33;;;54.70;1.00;;;;;;5020576;28;20483;-67
2023/07/11 08:21:10;;;;;;;9.87;6.77;;;54.70;1.00;;;;;;5022703;28;20467;-67
2023/07/11 08:23:36;;;;;;;8.27;6.10;;;55.10;1.00;;;;;;5022864;28;20482;-67
2023/07/11 08:26:03;;;;;;;7.43;6.20;;;55.20;1.00;;;;;;5026116;28;20463;-67
2023/07/11 08:28:30;;;;;;;9.50;6.10;;;55.40;1.00;;;;;;5029460;28;20462;-67
2023/07/11 08:30:58;;;;;;;6.53;5.70;;;56.30;1.00;;;;;;5030637;28;20224;-67
2023/07/11 08:33:25;;;;;;;11.85;6.07;;;57.00;1.00;;;;;;5028773;28;20219;-67
2023/07/11 08:35:56;;;;;;;7.45;6.13;;;57.50;1.00;;;;;;5024258;28;20735;-68
2023/07/11 08:38:23;;;;;;;14.85;6.85;;;57.70;1.00;;;;;;5027998;28;20219;-67
2023/07/11 08:40:50;;;;;;;8.38;6.50;;;58.10;1.00;;;;;;5026630;28;20204;-67
2023/07/11 08:43:21;;;;;;;11.35;5.85;;;58.40;1.00;;;;;;5027041;28;20226;-67
2023/07/11 08:45:53;;;;;;;7.43;5.60;;;58.50;1.00;;;;;;5026230;28;20199;-68
2023/07/11 08:48:25;;;;;;;8.02;6.30;;;58.40;1.00;;;;;;5025441;28;20223;-68
2023/07/11 08:51:00;;;;;;;6.70;5.75;;;58.80;1.00;;;;;;5028370;28;20728;-68
2023/07/11 08:53:33;;;;;;;6.47;5.82;;;59.00;1.00;;;;;;5025691;28;20760;-68
2023/07/11 08:56:11;;;;;;;8.38;6.43;;;59.30;1.00;;;;;;5028027;28;20207;-68
2023/07/11 08:58:39;;;;;;;11.63;6.57;;;59.60;1.00;;;;;;5025704;28;20215;-68
2023/07/11 09:01:18;;;;;;;8.45;6.50;;;59.80;1.00;;;;;;5023377;28;20216;-68
2023/07/11 09:03:49;;;;;;;9.18;6.30;;;59.80;1.00;;;;;;5024716;28;20712;-68
2023/07/11 09:06:20;;;;;;;8.98;7.07;;;60.10;1.00;;;;;;5027762;28;20200;-68
2023/07/11 09:08:54;;;;;;;8.75;6.50;;;60.20;1.00;;;;;;5026048;28;20226;-68
2023/07/11 09:11:24;;;;;;;7.95;6.13;;;60.20;1.00;;;;;;5024801;28;20207;-68
2023/07/11 09:14:05;;;;;;;10.27;6.85;;;60.30;1.00;;;;;;5023077;28;20239;-68
2023/07/11 09:16:35;;;;;;;6.78;5.95;;;60.40;1.00;;;;;;5028820;28;20606;-68
2023/07/11 09:19:13;;;;;;;6.70;5.72;;;60.50;1.00;;;;;;5025303;28;20698;-68
2023/07/11 09:21:51;;;;;;;11.48;6.78;;;60.40;1.00;;;;;;5027071;28;20200;-68
2023/07/11 09:24:31;;;;;;;8.10;6.80;;;60.60;1.00;;;;;;5056525;22;20226;-66
2023/07/11 09:27:04;;;;;;;9.25;6.07;;;60.70;1.00;;;;;;5066995;28;20202;-65
2023/07/11 09:29:31;;;;;;;7.68;6.88;;;60.00;1.00;;;;;;5068606;28;20198;-67
2023/07/11 09:32:01;;;;;;;7.53;6.07;;;59.40;1.00;;;;;;5067783;28;20581;-66
2023/07/11 09:34:36;;;;;;;8.68;6.47;;;58.70;1.00;;;;;;5066926;28;20230;-67
2023/07/11 09:37:11;;;;;;;8.25;7.15;;;56.70;1.00;;;;;;5067087;28;20211;-65
2023/07/11 09:39:43;;;;;;;8.60;7.00;;;54.30;1.00;;;;;;5069847;28;20686;-67
2023/07/11 09:42:21;;;;;;;9.67;6.50;;;52.60;1.00;;;;;;5069183;28;20678;-67
2023/07/11 09:45:01;;;;;;;12.00;7.73;;;50.90;1.00;;;;;;5069066;28;20472;-66
2023/07/11 09:47:30;;;;;;;9.73;7.10;;;49.20;1.00;;;;;;5070045;28;21065;-66
2023/07/11 09:50:00;;;;;;;9.90;7.37;;;47.70;1.00;;;;;;5068719;28;20579;-67
2023/07/11 09:52:28;;;;;;;10.87;7.30;;;46.40;1.00;;;;;;5070235;28;20461;-67
2023/07/11 09:54:56;;;;;;;8.87;7.70;;;45.20;1.00;;;;;;5065962;28;20520;-67
2023/07/11 09:57:23;;;;;;;10.57;7.47;;;44.30;1.00;;;;;;5070261;28;20480;-67
2023/07/11 09:59:55;;;;;;;10.53;8.27;;;43.40;1.00;;;;;;5067495;28;20849;-65
2023/07/11 10:02:22;;;;;;;9.27;7.70;;;42.60;1.00;;;;;;5066639;28;20465;-66
2023/07/11 10:04:51;;;;;;;11.43;7.00;;;41.90;1.00;;;;;;5068785;28;20520;-66
2023/07/11 10:07:23;;;;;;;13.30;7.40;;;41.50;1.00;;;;;;5069232;28;20833;-66
2023/07/11 10:09:51;;;;;;;14.23;7.63;;;41.10;1.00;;;;;;5070077;28;20464;-66
2023/07/11 10:12:21;;;;;;;9.93;6.87;;;40.80;1.00;;;;;;5065245;28;20560;-66
2023/07/11 10:14:53;;;;;;;9.10;6.90;;;40.50;1.00;;;;;;5068644;28;20489;-65
2023/07/11 10:17:22;;;;;;;10.00;7.20;;;40.10;1.00;;;;;;5068147;28;20957;-66
2023/07/11 10:19:50;;;;;;;6.93;5.63;;;39.60;1.00;;;;;;5069649;28;20484;-66
2023/07/11 10:22:20;;;;;;;8.90;6.80;;;39.30;1.00;;;;;;5069713;28;20461;-65
2023/07/11 10:24:48;;;;;;;9.33;6.23;;;39.20;1.00;;;;;;5068465;28;20491;-65
2023/07/11 10:27:30;;;;;;;12.50;6.10;;;38.80;1.00;;;;;;5069401;28;20488;-66
2023/07/11 10:30:00;;;;;;;10.03;6.80;;;38.60;1.00;;;;;;5065084;28;21126;-67
2023/07/11 10:32:34;;;;;;;9.60;6.60;;;38.20;1.00;;;;;;5065806;28;20473;-67
2023/07/11 10:35:05;;;;;;;8.33;6.20;;;38.10;1.00;;;;;;5064063;28;20473;-66
2023/07/11 10:37:40;;;;;;;8.70;6.90;;;37.90;1.00;;;;;;5067135;28;20489;-66
2023/07/11 10:40:12;;;;;;;7.83;6.17;;;37.60;1.00;;;;;;5065968;28;20573;-66
2023/07/11 10:42:44;;;;;;;8.67;6.37;;;37.60;1.00;;;;;;5066582;28;20453;-65
2023/07/11 10:45:17;;;;;;;8.67;5.47;;;37.40;1.00;;;;;;5067911;28;20472;-66
2023/07/11 10:47:52;;;;;;;7.43;5.80;;;37.20;1.00;;;;;;5068355;28;20453;-66
2023/07/11 10:50:33;;;;;;;10.90;6.87;;;37.00;1.00;;;;;;5068496;28;20468;-66
2023/07/11 10:53:09;;;;;;;9.27;6.03;;;36.90;1.00;;;;;;5069284;28;20453;-65
2023/07/11 10:55:42;;;;;;;10.00;6.70;;;36.70;1.00;;;;;;5066249;28;20519;-66
2023/07/11 10:58:10;;;;;;;10.43;6.80;;;36.60;1.00;;;;;;5068563;28;20488;-66
2023/07/11 11:00:49;;;;;;;8.53;6.10;;;36.50;1.00;;;;;;5061472;28;20461;-65
2023/07/11 11:03:32;;;;;;;10.40;6.90;;;36.50;1.00;;;;;;5063344;28;21034;-65
2023/07/11 11:06:06;;;;;;;9.00;6.20;;;36.40;1.00;;;;;;5067546;28;20479;-66
2023/07/11 11:08:41;;;;;;;8.60;6.37;;;36.40;1.00;;;;;;5067776;28;20464;-66
2023/07/11 11:11:20;;;;;;;9.37;6.97;;;36.30;1.00;;;;;;5066817;28;20484;-65
2023/07/11 11:13:58;;;;;;;8.67;6.20;;;36.30;1.00;;;;;;5067090;28;20480;-65
2023/07/11 11:16:31;;;;;;;12.30;7.10;;;36.10;1.00;;;;;;5066056;28;20456;-65
2023/07/11 11:19:08;;;;;;;9.87;6.67;;;36.00;1.00;;;;;;5068242;28;20492;-65
2023/07/11 11:21:48;;;;;;;12.37;7.03;;;35.80;1.00;;;;;;5068752;28;20449;-66
2023/07/11 11:24:34;;;;;;;10.23;6.97;;;35.80;1.00;;;;;;5065069;28;20486;-66
2023/07/11 11:27:06;;;;;;;10.33;7.60;;;35.90;1.00;;;;;;5064367;28;21055;-65
2023/07/11 11:29:47;;;;;;;10.50;6.83;;;35.80;1.00;;;;;;5067761;28;20973;-65
2023/07/11 11:32:23;;;;;;;11.47;7.03;;;35.80;1.00;;;;;;5067665;28;20508;-67
2023/07/11 11:35:07;;;;;;;9.50;6.77;;;35.70;1.00;;;;;;5065141;28;21288;-66
2023/07/11 11:37:40;;;;;;;8.93;6.93;;;35.70;1.00;;;;;;5065842;28;20464;-65
2023/07/11 11:40:13;;;;;;;9.83;6.50;;;35.60;1.00;;;;;;5065239;28;21010;-65
2023/07/11 11:42:43;;;;;;;9.20;6.90;;;35.60;1.00;;;;;;5066029;28;20457;-65
2023/07/11 11:45:16;;;;;;;14.60;7.50;;;35.50;1.00;;;;;;5066847;28;20480;-65
2023/07/11 11:47:44;;;;;;;11.33;6.73;;;35.50;1.00;;;;;;5067643;28;20460;-65
2023/07/11 11:50:15;;;;;;;10.70;8.00;;;35.50;1.00;;;;;;5062228;28;20981;-66
2023/07/11 11:52:44;;;;;;;10.23;6.60;;;35.50;1.00;;;;;;5066094;28;20882;-65
2023/07/11 11:55:33;;;;;;;10.90;7.17;;;35.50;1.00;;;;;;5062118;28;20469;-65
2023/07/11 11:58:00;;;;;;;8.63;6.97;;;35.40;1.00;;;;;;5071630;28;20456;-65
2023/07/11 12:00:39;;;;;;;12.37;7.03;;;35.40;1.00;;;;;;5067493;28;20473;-65
2023/07/11 12:03:18;;;;;;;9.47;6.60;;;35.40;1.00;;;;;;5067916;28;21025;-65
2023/07/11 12:05:49;;;;;;;9.83;6.60;;;35.30;1.00;;;;;;5066178;28;20464;-66
2023/07/11 12:08:28;;;;;;;8.73;6.93;;;35.20;1.00;;;;;;5065275;28;20457;-65
2023/07/11 12:11:29;;;;;;;12.27;7.40;;;35.20;1.00;;;;;;5063191;28;20461;-65
2023/07/11 12:14:18;;;;;;;12.00;7.13;;;35.20;1.00;;;;;;5057999;28;21009;-66
2023/07/11 12:16:49;;;;;;;11.27;7.03;;;35.20;1.00;;;;;;5059549;28;20484;-65
2023/07/11 12:19:29;;;;;;;8.93;6.93;;;35.20;1.00;;;;;;5063133;28;20508;-65
2023/07/11 12:22:01;;;;;;;13.03;7.13;;;35.20;1.00;;;;;;5062080;28;20486;-65
2023/07/11 12:24:42;;;;;;;9.37;7.20;;;35.10;1.00;;;;;;5064286;28;20489;-65
2023/07/11 12:27:41;;;;;;;9.70;7.40;;;35.10;1.00;;;;;;5067370;28;20456;-65
2023/07/11 12:30:37;;;;;;;11.40;6.73;;;35.10;1.00;;;;;;5065979;28;20514;-65
2023/07/11 12:33:25;;;;;;;14.90;7.00;;;35.10;1.00;;;;;;5061241;28;20485;-67
2023/07/11 12:36:02;;;;;;;13.83;7.47;;;35.20;1.00;;;;;;5065482;28;20471;-68
2023/07/11 12:38:43;;;;;;;9.30;6.77;;;35.30;1.00;;;;;;5063530;28;20453;-66
2023/07/11 12:41:19;;;;;;;10.67;6.47;;;35.30;1.00;;;;;;5066419;28;20468;-65
2023/07/11 12:43:48;;;;;;;9.03;6.57;;;35.40;1.00;;;;;;5061121;28;20484;-66
2023/07/11 12:46:20;;;;;;;9.50;6.70;;;35.50;1.00;;;;;;5066626;28;20552;-65
2023/07/11 12:48:50;;;;;;;9.33;6.93;;;35.50;1.00;;;;;;5063396;28;20460;-65
2023/07/11 12:51:26;;;;;;;11.50;6.83;;;35.50;1.00;;;;;;5065807;28;20458;-65
2023/07/11 12:54:00;;;;;;;10.93;7.20;;;35.30;1.00;;;;;;5062998;28;21330;-66
2023/07/11 12:56:29;;;;;;;7.50;6.20;;;35.30;1.00;;;;;;5065523;28;20834;-65